createdAt,value
2023-05-14T00:00:48.573Z,8.59
2023-05-14T00:02:51.238Z,9.09
2023-05-14T00:04:54.110Z,8.94
2023-05-14T00:06:56.443Z,8.87
2023-05-14T00:08:58.809Z,9.09
2023-05-14T00:11:01.717Z,9.07
2023-05-14T00:13:04.082Z,8.85
2023-05-14T00:15:07.334Z,9.01
2023-05-14T00:17:09.887Z,9.08
2023-05-14T00:19:12.355Z,8.99
2023-05-14T00:21:14.925Z,9.03
2023-05-14T00:23:17.622Z,9.13
2023-05-14T00:25:20.840Z,9.27
2023-05-14T00:27:23.814Z,8.79
2023-05-14T00:29:26.763Z,8.92
2023-05-14T00:31:29.380Z,8.90
2023-05-14T00:33:31.922Z,8.69
2023-05-14T00:35:37.644Z,8.56
2023-05-14T00:37:40.187Z,8.72
2023-05-14T00:39:42.919Z,8.59
2023-05-14T00:41:45.722Z,8.75
2023-05-14T00:43:48.286Z,8.46
2023-05-14T00:45:54.929Z,8.46
2023-05-14T00:47:57.547Z,8.22
2023-05-14T00:50:00.110Z,8.39
2023-05-14T00:52:03.118Z,8.49
2023-05-14T00:54:06.687Z,8.47
2023-05-14T00:56:09.925Z,8.39
2023-05-14T00:58:14.267Z,8.36
2023-05-14T01:00:17.557Z,8.37
2023-05-14T01:02:20.148Z,8.29
2023-05-14T01:04:23.366Z,8.25
2023-05-14T01:07:02.444Z,8.42
2023-05-14T01:09:29.510Z,8.39
2023-05-14T01:12:19.047Z,8.14
2023-05-14T01:14:29.593Z,8.02
2023-05-14T01:16:35.694Z,7.62
2023-05-14T01:18:40.409Z,7.79
2023-05-14T01:20:44.212Z,8.04
2023-05-14T01:22:46.828Z,7.50
2023-05-14T01:24:49.740Z,8.18
2023-05-14T01:26:53.122Z,7.69
2023-05-14T01:29:14.768Z,7.90
2023-05-14T01:31:25.470Z,7.80
2023-05-14T01:33:30.588Z,7.93
2023-05-14T01:35:34.041Z,8.20
2023-05-14T01:37:37.611Z,7.99
2023-05-14T01:39:42.594Z,7.87
2023-05-14T01:41:47.401Z,7.57
2023-05-14T01:43:51.180Z,7.97
2023-05-14T01:45:55.794Z,7.58
2023-05-14T01:48:00.285Z,8.10
2023-05-14T01:50:02.903Z,8.00
2023-05-14T01:52:07.619Z,7.67
2023-05-14T01:54:10.111Z,7.15
2023-05-14T01:56:12.618Z,7.71
2023-05-14T01:58:15.312Z,7.80
2023-05-14T02:00:18.118Z,7.79
2023-05-14T02:02:20.935Z,7.97
2023-05-14T02:04:23.588Z,7.58
2023-05-14T02:06:26.885Z,7.65
2023-05-14T02:08:31.716Z,7.18
2023-05-14T02:10:34.433Z,7.45
2023-05-14T02:12:38.077Z,7.54
2023-05-14T02:14:40.600Z,7.33
2023-05-14T02:16:43.317Z,7.58
2023-05-14T02:18:45.745Z,7.46
2023-05-14T02:20:49.120Z,6.99
2023-05-14T02:22:53.499Z,7.40
2023-05-14T02:24:56.909Z,7.50
2023-05-14T02:27:01.320Z,7.69
2023-05-14T02:29:03.828Z,7.23
2023-05-14T02:31:06.420Z,7.28
2023-05-14T02:33:09.609Z,7.43
2023-05-14T02:35:12.535Z,7.21
2023-05-14T02:37:15.128Z,7.27
2023-05-14T02:39:17.911Z,7.08
2023-05-14T02:41:22.053Z,7.48
2023-05-14T02:43:24.848Z,7.36
2023-05-14T02:45:28.351Z,7.24
2023-05-14T02:47:31.153Z,7.13
2023-05-14T02:49:33.644Z,7.07
2023-05-14T02:51:36.652Z,7.16
2023-05-14T02:53:39.127Z,7.10
2023-05-14T02:55:41.963Z,6.83
2023-05-14T02:57:45.265Z,7.01
2023-05-14T02:59:48.022Z,6.46
2023-05-14T03:01:51.733Z,6.81
2023-05-14T03:03:55.716Z,6.53
2023-05-14T03:05:58.275Z,6.52
2023-05-14T03:08:01.459Z,6.67
2023-05-14T03:10:04.605Z,6.67
2023-05-14T03:12:08.217Z,6.49
2023-05-14T03:14:11.283Z,6.96
2023-05-14T03:16:14.081Z,6.52
2023-05-14T03:18:16.884Z,6.61
2023-05-14T03:20:19.642Z,6.94
2023-05-14T03:22:22.236Z,6.30
2023-05-14T03:24:24.909Z,6.86
2023-05-14T03:26:27.339Z,6.36
2023-05-14T03:28:30.239Z,6.45
2023-05-14T03:30:32.764Z,6.28
2023-05-14T03:32:35.951Z,6.49
2023-05-14T03:34:39.171Z,6.10
2023-05-14T03:36:42.446Z,6.79
2023-05-14T03:38:45.088Z,6.37
2023-05-14T03:40:49.274Z,6.89
2023-05-14T03:42:51.717Z,6.87
2023-05-14T03:44:54.443Z,6.78
2023-05-14T03:46:56.826Z,6.92
2023-05-14T03:48:59.302Z,6.80
2023-05-14T03:51:02.895Z,6.78
2023-05-14T03:53:05.421Z,7.01
2023-05-14T03:55:08.351Z,6.27
2023-05-14T03:57:11.972Z,6.78
2023-05-14T03:59:14.460Z,6.85
2023-05-14T04:01:16.947Z,6.65
2023-05-14T04:03:19.940Z,6.86
2023-05-14T04:05:23.072Z,7.05
2023-05-14T04:07:25.793Z,6.86
2023-05-14T04:09:28.973Z,6.74
2023-05-14T04:11:32.335Z,6.49
2023-05-14T04:13:35.777Z,7.25
2023-05-14T04:15:39.889Z,7.10
2023-05-14T04:17:44.118Z,7.15
2023-05-14T04:19:48.378Z,7.45
2023-05-14T04:21:51.224Z,7.24
2023-05-14T04:23:54.875Z,7.56
2023-05-14T04:25:57.732Z,7.44
2023-05-14T04:28:00.611Z,7.87
2023-05-14T04:30:03.375Z,7.49
2023-05-14T04:32:07.288Z,7.79
2023-05-14T04:34:09.957Z,8.30
2023-05-14T04:36:13.285Z,8.27
2023-05-14T04:38:16.120Z,8.62
2023-05-14T04:40:19.572Z,8.72
2023-05-14T04:42:22.410Z,8.67
2023-05-14T04:44:24.868Z,8.94
2023-05-14T04:46:27.284Z,9.34
2023-05-14T04:48:29.842Z,9.42
2023-05-14T04:50:32.677Z,9.65
2023-05-14T04:52:35.366Z,9.69
2023-05-14T04:54:37.774Z,9.85
2023-05-14T04:56:40.424Z,9.75
2023-05-14T04:58:43.556Z,9.86
2023-05-14T05:00:46.638Z,10.35
2023-05-14T05:02:49.397Z,10.29
2023-05-14T05:04:51.880Z,10.71
2023-05-14T05:06:54.173Z,10.68
2023-05-14T05:08:57.064Z,10.71
2023-05-14T05:10:59.696Z,10.95
2023-05-14T05:13:02.485Z,11.25
2023-05-14T05:15:07.020Z,10.85
2023-05-14T05:17:09.904Z,10.99
2023-05-14T05:19:12.721Z,11.19
2023-05-14T05:21:19.132Z,11.26
2023-05-14T05:23:21.806Z,11.10
2023-05-14T05:25:24.074Z,11.35
2023-05-14T05:27:27.093Z,11.37
2023-05-14T05:29:30.171Z,11.73
2023-05-14T05:31:32.847Z,12.07
2023-05-14T05:33:36.104Z,11.96
2023-05-14T05:35:39.062Z,12.07
2023-05-14T05:37:43.089Z,12.25
2023-05-14T05:39:46.034Z,12.47
2023-05-14T05:41:48.666Z,12.39
2023-05-14T05:43:51.305Z,12.81
2023-05-14T05:45:53.777Z,12.59
2023-05-14T05:47:56.359Z,13.18
2023-05-14T05:50:00.186Z,12.82
2023-05-14T05:52:03.186Z,12.86
2023-05-14T05:54:05.942Z,12.94
2023-05-14T05:56:09.137Z,12.98
2023-05-14T05:58:11.672Z,13.49
2023-05-14T06:00:15.825Z,13.27
2023-05-14T06:02:20.054Z,13.41
2023-05-14T06:04:22.822Z,13.43
2023-05-14T06:06:25.240Z,13.30
2023-05-14T06:08:30.806Z,13.60
2023-05-14T06:10:35.140Z,13.86
2023-05-14T06:12:38.022Z,14.19
2023-05-14T06:14:43.967Z,14.43
2023-05-14T06:16:49.591Z,14.20
2023-05-14T06:18:53.409Z,14.59
2023-05-14T06:20:57.584Z,14.76
2023-05-14T06:23:00.114Z,15.04
2023-05-14T06:25:03.324Z,14.97
2023-05-14T06:27:07.183Z,15.40
2023-05-14T06:29:09.733Z,15.10
2023-05-14T06:31:12.180Z,15.02
2023-05-14T06:33:15.984Z,14.93
2023-05-14T06:35:19.842Z,15.15
2023-05-14T06:37:22.652Z,15.37
2023-05-14T06:39:25.437Z,15.64
2023-05-14T06:41:30.341Z,15.92
2023-05-14T06:43:32.833Z,16.34
2023-05-14T06:45:36.409Z,16.16
2023-05-14T06:47:38.865Z,16.27
2023-05-14T06:49:41.174Z,16.13
2023-05-14T06:51:43.994Z,16.17
2023-05-14T06:53:47.721Z,16.36
2023-05-14T06:55:51.203Z,16.63
2023-05-14T06:57:53.409Z,17.03
2023-05-14T06:59:55.955Z,17.28
2023-05-14T07:01:59.412Z,17.12
2023-05-14T07:04:02.098Z,16.97
2023-05-14T07:06:05.068Z,17.06
2023-05-14T07:08:07.682Z,17.38
2023-05-14T07:10:10.713Z,17.76
2023-05-14T07:12:13.635Z,17.80
2023-05-14T07:14:16.911Z,18.02
2023-05-14T07:16:20.114Z,17.74
2023-05-14T07:18:24.889Z,18.06
2023-05-14T07:20:27.943Z,17.86
2023-05-14T07:22:30.536Z,18.07
2023-05-14T07:24:33.233Z,18.65
2023-05-14T07:26:35.903Z,18.53
2023-05-14T07:28:38.687Z,18.78
2023-05-14T07:30:41.910Z,18.53
2023-05-14T07:32:44.846Z,18.78
2023-05-14T07:34:47.876Z,19.21
2023-05-14T07:36:50.461Z,19.63
2023-05-14T07:38:53.131Z,19.41
2023-05-14T07:40:56.854Z,19.66
2023-05-14T07:42:59.805Z,19.89
2023-05-14T07:45:02.515Z,19.41
2023-05-14T07:47:07.959Z,19.39
2023-05-14T07:49:10.871Z,19.60
2023-05-14T07:51:13.379Z,19.46
2023-05-14T07:53:16.388Z,19.37
2023-05-14T07:55:18.932Z,19.24
2023-05-14T07:57:22.445Z,18.85
2023-05-14T07:59:25.396Z,18.87
2023-05-14T08:01:28.121Z,18.88
2023-05-14T08:03:30.968Z,19.11
2023-05-14T08:05:33.580Z,18.83
2023-05-14T08:07:36.236Z,18.89
2023-05-14T08:09:38.919Z,18.68
2023-05-14T08:11:41.749Z,18.54
2023-05-14T08:13:45.009Z,18.71
2023-05-14T08:15:48.217Z,18.87
2023-05-14T08:17:50.813Z,19.39
2023-05-14T08:19:54.756Z,19.56
2023-05-14T08:21:57.616Z,19.65
2023-05-14T08:24:00.800Z,19.56
2023-05-14T08:26:03.575Z,19.60
2023-05-14T08:28:06.450Z,19.87
2023-05-14T08:30:09.798Z,20.30
2023-05-14T08:32:22.784Z,20.33
2023-05-14T08:34:26.574Z,20.35
2023-05-14T08:36:30.247Z,20.71
2023-05-14T08:38:32.945Z,20.45
2023-05-14T08:40:35.745Z,20.71
2023-05-14T08:42:42.144Z,21.06
2023-05-14T08:44:54.055Z,21.31
2023-05-14T08:46:58.103Z,21.00
2023-05-14T08:49:37.895Z,21.43
2023-05-14T08:51:41.333Z,21.56
2023-05-14T08:53:44.064Z,21.81
2023-05-14T08:55:49.991Z,22.07
2023-05-14T08:57:52.777Z,22.13
2023-05-14T08:59:55.458Z,22.44
2023-05-14T09:02:02.300Z,22.60
2023-05-14T09:04:09.562Z,22.89
2023-05-14T09:06:15.031Z,23.00
2023-05-14T09:08:17.638Z,22.72
2023-05-14T09:10:21.869Z,22.77
2023-05-14T09:12:24.681Z,23.19
2023-05-14T09:14:27.496Z,23.16
2023-05-14T09:16:31.220Z,23.34
2023-05-14T09:18:36.503Z,23.45
2023-05-14T09:20:39.561Z,23.52
2023-05-14T09:22:43.130Z,23.57
2023-05-14T09:24:46.797Z,23.51
2023-05-14T09:26:57.957Z,23.44
2023-05-14T09:29:02.741Z,23.69
2023-05-14T09:31:05.851Z,24.02
2023-05-14T09:33:10.849Z,24.22
2023-05-14T09:35:19.469Z,24.80
2023-05-14T09:37:22.828Z,24.59
2023-05-14T09:39:26.872Z,24.61
2023-05-14T09:41:29.778Z,24.69
2023-05-14T09:43:32.878Z,24.39
2023-05-14T09:45:35.960Z,24.61
2023-05-14T09:47:39.610Z,24.95
2023-05-14T09:49:42.540Z,25.10
2023-05-14T09:51:45.635Z,25.15
2023-05-14T09:53:49.338Z,25.11
2023-05-14T09:55:52.465Z,25.33
2023-05-14T09:57:54.840Z,25.48
2023-05-14T09:59:57.506Z,25.47
2023-05-14T10:02:01.680Z,25.40
2023-05-14T10:04:07.998Z,25.25
2023-05-14T10:06:15.500Z,25.61
2023-05-14T10:08:54.629Z,25.74
2023-05-14T10:11:00.267Z,25.38
2023-05-14T10:13:11.301Z,25.03
2023-05-14T10:15:20.661Z,24.95
2023-05-14T10:17:28.274Z,24.59
2023-05-14T10:19:37.976Z,24.69
2023-05-14T10:21:45.399Z,24.30
2023-05-14T10:23:49.460Z,24.16
2023-05-14T10:25:51.914Z,24.30
2023-05-14T10:27:55.297Z,24.54
2023-05-14T10:29:58.467Z,24.78
2023-05-14T10:32:07.278Z,25.02
2023-05-14T10:34:38.884Z,24.94
2023-05-14T10:36:42.834Z,25.07
2023-05-14T10:38:45.625Z,25.07
2023-05-14T10:40:48.354Z,25.39
2023-05-14T10:42:51.363Z,25.71
2023-05-14T10:44:59.002Z,26.16
2023-05-14T10:47:03.040Z,26.12
2023-05-14T10:49:06.167Z,26.07
2023-05-14T10:51:13.226Z,25.89
2023-05-14T10:53:16.022Z,25.63
2023-05-14T10:55:18.949Z,26.43
2023-05-14T10:57:23.061Z,26.01
2023-05-14T10:59:28.948Z,25.85
2023-05-14T11:01:32.676Z,26.16
2023-05-14T11:03:46.702Z,26.21
2023-05-14T11:05:50.322Z,25.86
2023-05-14T11:07:56.448Z,26.04
2023-05-14T11:10:05.111Z,26.33
2023-05-14T11:12:09.298Z,26.57
2023-05-14T11:14:12.692Z,26.65
2023-05-14T11:16:23.436Z,26.03
2023-05-14T11:18:31.420Z,25.85
2023-05-14T11:20:36.609Z,25.50
2023-05-14T11:22:43.764Z,24.97
2023-05-14T11:24:46.504Z,24.83
2023-05-14T11:26:49.599Z,24.92
2023-05-14T11:28:52.685Z,24.61
2023-05-14T11:30:55.184Z,24.64
2023-05-14T11:32:59.321Z,24.38
2023-05-14T11:35:03.801Z,23.97
2023-05-14T11:37:08.246Z,23.67
2023-05-14T11:39:19.347Z,23.52
2023-05-14T11:41:23.575Z,23.19
2023-05-14T11:43:29.611Z,22.84
2023-05-14T11:45:33.399Z,22.71
2023-05-14T11:47:36.060Z,22.63
2023-05-14T11:49:38.596Z,22.70
2023-05-14T11:51:41.991Z,23.17
2023-05-14T11:53:46.954Z,23.46
2023-05-14T11:55:49.626Z,23.32
2023-05-14T11:57:52.792Z,22.91
2023-05-14T12:00:00.355Z,23.27
2023-05-14T12:02:05.548Z,23.19
2023-05-14T12:04:08.495Z,23.36
2023-05-14T12:06:11.595Z,23.19
2023-05-14T12:08:24.267Z,23.23
2023-05-14T12:10:27.300Z,23.13
2023-05-14T12:12:36.340Z,23.08
2023-05-14T12:14:42.292Z,23.00
2023-05-14T12:16:46.588Z,23.10
2023-05-14T12:18:50.044Z,22.78
2023-05-14T12:20:53.170Z,23.01
2023-05-14T12:22:55.615Z,22.78
2023-05-14T12:25:00.814Z,22.68
2023-05-14T12:27:03.675Z,22.62
2023-05-14T12:29:09.668Z,22.63
2023-05-14T12:31:12.038Z,22.54
2023-05-14T12:33:18.887Z,22.51
2023-05-14T12:35:22.965Z,22.06
2023-05-14T12:37:27.385Z,22.15
2023-05-14T12:39:34.322Z,22.18
2023-05-14T12:41:37.672Z,21.95
2023-05-14T12:43:44.510Z,21.89
2023-05-14T12:45:47.210Z,21.81
2023-05-14T12:47:50.574Z,21.74
2023-05-14T12:49:53.311Z,21.59
2023-05-14T12:52:07.772Z,21.53
2023-05-14T12:54:18.545Z,21.66
2023-05-14T12:56:22.359Z,21.71
2023-05-14T12:58:25.126Z,21.65
2023-05-14T13:00:28.465Z,21.07
2023-05-14T13:02:31.086Z,21.43
2023-05-14T13:04:34.307Z,21.42
2023-05-14T13:06:37.231Z,21.20
2023-05-14T13:08:40.996Z,21.50
2023-05-14T13:10:45.711Z,21.39
2023-05-14T13:12:48.860Z,21.37
2023-05-14T13:14:51.628Z,21.13
2023-05-14T13:16:54.019Z,21.40
2023-05-14T13:18:56.539Z,21.56
2023-05-14T13:20:59.354Z,21.27
2023-05-14T13:23:02.745Z,20.98
2023-05-14T13:25:06.539Z,20.78
2023-05-14T13:27:09.055Z,20.97
2023-05-14T13:29:12.222Z,20.84
2023-05-14T13:31:15.246Z,20.85
2023-05-14T13:33:17.961Z,20.63
2023-05-14T13:35:20.435Z,20.60
2023-05-14T13:37:24.242Z,20.26
2023-05-14T13:39:27.605Z,20.46
2023-05-14T13:41:30.511Z,20.98
2023-05-14T13:43:34.697Z,20.91
2023-05-14T13:45:37.289Z,20.68
2023-05-14T13:47:40.430Z,21.13
2023-05-14T13:49:43.602Z,21.00
2023-05-14T13:51:46.748Z,20.86
2023-05-14T13:53:50.564Z,21.05
2023-05-14T13:56:01.699Z,21.04
2023-05-14T13:58:04.888Z,21.24
2023-05-14T14:00:08.916Z,21.13
2023-05-14T14:02:11.780Z,21.14
2023-05-14T14:04:16.736Z,21.20
2023-05-14T14:06:20.313Z,21.42
2023-05-14T14:08:24.506Z,21.25
2023-05-14T14:10:27.483Z,21.46
2023-05-14T14:12:30.107Z,21.24
2023-05-14T14:14:33.167Z,21.36
2023-05-14T14:16:36.966Z,21.20
2023-05-14T14:18:39.819Z,21.21
2023-05-14T14:20:42.643Z,21.00
2023-05-14T14:22:45.474Z,21.08
2023-05-14T14:24:47.957Z,21.13
2023-05-14T14:26:50.715Z,21.18
2023-05-14T14:28:53.600Z,21.20
2023-05-14T14:30:56.512Z,21.28
2023-05-14T14:33:01.932Z,21.11
2023-05-14T14:35:05.985Z,21.22
2023-05-14T14:37:08.872Z,21.19
2023-05-14T14:39:11.652Z,20.97
2023-05-14T14:41:14.785Z,21.12
2023-05-14T14:43:17.726Z,21.18
2023-05-14T14:45:20.623Z,21.20
2023-05-14T14:47:23.732Z,21.24
2023-05-14T14:49:26.696Z,20.91
2023-05-14T14:51:30.664Z,21.03
2023-05-14T14:53:34.472Z,21.31
2023-05-14T14:55:37.446Z,21.13
2023-05-14T14:57:40.158Z,21.40
2023-05-14T14:59:42.731Z,21.18
2023-05-14T15:01:45.521Z,21.15
2023-05-14T15:03:48.946Z,21.32
2023-05-14T15:05:53.913Z,21.08
2023-05-14T15:07:56.807Z,20.69
2023-05-14T15:10:01.029Z,21.02
2023-05-14T15:12:03.728Z,20.94
2023-05-14T15:14:06.440Z,20.90
2023-05-14T15:16:09.744Z,20.74
2023-05-14T15:18:12.961Z,20.88
2023-05-14T15:20:16.611Z,20.75
2023-05-14T15:22:19.428Z,20.62
2023-05-14T15:24:24.410Z,20.40
2023-05-14T15:26:27.039Z,20.64
2023-05-14T15:28:29.631Z,20.62
2023-05-14T15:30:31.996Z,20.58
2023-05-14T15:32:34.962Z,20.57
2023-05-14T15:34:37.788Z,20.58
2023-05-14T15:36:41.256Z,20.55
2023-05-14T15:38:43.852Z,20.52
2023-05-14T15:40:46.626Z,20.35
2023-05-14T15:42:49.118Z,20.56
2023-05-14T15:44:52.425Z,20.37
2023-05-14T15:46:55.346Z,20.33
2023-05-14T15:48:58.714Z,20.57
2023-05-14T15:51:01.309Z,19.93
2023-05-14T15:53:04.022Z,20.17
2023-05-14T15:55:08.424Z,19.95
2023-05-14T15:57:11.189Z,20.22
2023-05-14T15:59:15.663Z,20.12
2023-05-14T16:01:19.667Z,20.21
2023-05-14T16:03:22.430Z,19.78
2023-05-14T16:05:25.635Z,19.69
2023-05-14T16:07:28.198Z,20.09
2023-05-14T16:09:31.415Z,19.85
2023-05-14T16:11:34.591Z,19.80
2023-05-14T16:13:39.035Z,19.87
2023-05-14T16:15:42.870Z,19.79
2023-05-14T16:17:45.909Z,19.74
2023-05-14T16:19:48.635Z,19.57
2023-05-14T16:21:51.508Z,19.62
2023-05-14T16:23:54.220Z,19.53
2023-05-14T16:25:57.164Z,19.54
2023-05-14T16:28:00.783Z,19.14
2023-05-14T16:30:05.553Z,19.46
2023-05-14T16:32:09.234Z,19.37
2023-05-14T16:34:12.084Z,19.50
2023-05-14T16:36:14.984Z,18.93
2023-05-14T16:38:19.861Z,19.45
2023-05-14T16:40:24.104Z,19.23
2023-05-14T16:42:27.241Z,18.97
2023-05-14T16:44:30.209Z,19.06
2023-05-14T16:46:33.469Z,19.05
2023-05-14T16:48:36.337Z,18.58
2023-05-14T16:50:39.050Z,18.98
2023-05-14T16:52:42.431Z,18.95
2023-05-14T16:54:45.562Z,18.85
2023-05-14T16:56:48.481Z,18.71
2023-05-14T16:58:52.266Z,18.38
2023-05-14T17:00:54.906Z,18.15
2023-05-14T17:02:57.892Z,17.99
2023-05-14T17:05:01.357Z,18.09
2023-05-14T17:07:06.162Z,17.93
2023-05-14T17:09:09.057Z,17.74
2023-05-14T17:11:12.067Z,17.72
2023-05-14T17:13:15.753Z,17.57
2023-05-14T17:15:18.489Z,17.05
2023-05-14T17:17:21.257Z,16.87
2023-05-14T17:19:24.140Z,17.16
2023-05-14T17:21:27.289Z,17.07
2023-05-14T17:23:29.966Z,16.92
2023-05-14T17:25:33.949Z,17.08
2023-05-14T17:27:36.933Z,17.03
2023-05-14T17:29:39.913Z,16.61
2023-05-14T17:31:43.430Z,16.88
2023-05-14T17:33:46.110Z,16.31
2023-05-14T17:35:49.602Z,16.51
2023-05-14T17:37:52.698Z,16.17
2023-05-14T17:39:55.520Z,16.05
2023-05-14T17:41:58.104Z,16.26
2023-05-14T17:44:00.959Z,16.03
2023-05-14T17:46:04.053Z,16.11
2023-05-14T17:48:07.075Z,15.95
2023-05-14T17:50:09.972Z,15.43
2023-05-14T17:52:12.780Z,15.48
2023-05-14T17:54:15.550Z,15.56
2023-05-14T17:56:19.322Z,15.67
2023-05-14T17:58:22.179Z,15.07
2023-05-14T18:00:25.677Z,15.44
2023-05-14T18:02:28.573Z,15.33
2023-05-14T18:04:31.586Z,15.74
2023-05-14T18:06:34.261Z,15.64
2023-05-14T18:08:37.140Z,15.52
2023-05-14T18:10:40.148Z,15.35
2023-05-14T18:12:43.483Z,15.59
2023-05-14T18:14:46.798Z,15.51
2023-05-14T18:16:49.563Z,15.16
2023-05-14T18:18:52.969Z,15.81
2023-05-14T18:20:55.861Z,15.44
2023-05-14T18:22:58.741Z,15.81
2023-05-14T18:25:01.472Z,15.55
2023-05-14T18:27:05.504Z,15.32
2023-05-14T18:29:08.559Z,15.56
2023-05-14T18:31:11.547Z,15.20
2023-05-14T18:33:14.479Z,15.16
2023-05-14T18:35:17.436Z,14.76
2023-05-14T18:37:19.926Z,14.72
2023-05-14T18:39:23.186Z,14.58
2023-05-14T18:41:26.016Z,14.85
2023-05-14T18:43:28.999Z,14.44
2023-05-14T18:45:31.954Z,14.52
2023-05-14T18:47:35.759Z,14.29
2023-05-14T18:49:42.968Z,14.55
2023-05-14T18:51:46.583Z,14.49
2023-05-14T18:53:49.421Z,14.36
2023-05-14T18:55:52.810Z,14.65
2023-05-14T18:57:55.712Z,14.65
2023-05-14T18:59:58.381Z,14.41
2023-05-14T19:02:01.014Z,14.81
2023-05-14T19:04:05.386Z,14.72
2023-05-14T19:06:08.580Z,14.88
2023-05-14T19:08:11.979Z,14.45
2023-05-14T19:10:15.243Z,15.02
2023-05-14T19:12:18.086Z,14.77
2023-05-14T19:14:20.878Z,14.68
2023-05-14T19:16:24.988Z,14.86
2023-05-14T19:18:27.776Z,15.01
2023-05-14T19:20:30.620Z,14.96
2023-05-14T19:22:33.502Z,14.89
2023-05-14T19:24:38.413Z,14.82
2023-05-14T19:26:42.362Z,14.46
2023-05-14T19:28:44.932Z,14.80
2023-05-14T19:30:48.228Z,14.98
2023-05-14T19:32:51.419Z,14.83
2023-05-14T19:34:54.773Z,14.90
2023-05-14T19:36:57.962Z,14.66
2023-05-14T19:39:01.053Z,14.83
2023-05-14T19:41:04.041Z,14.82
2023-05-14T19:43:08.990Z,14.70
2023-05-14T19:45:12.340Z,14.82
2023-05-14T19:47:15.906Z,14.69
2023-05-14T19:49:18.917Z,14.89
2023-05-14T19:51:21.848Z,14.87
2023-05-14T19:53:30.254Z,14.78
2023-05-14T19:55:33.378Z,14.52
2023-05-14T19:57:35.985Z,14.31
2023-05-14T19:59:40.007Z,14.20
2023-05-14T20:01:42.649Z,14.38
2023-05-14T20:03:45.436Z,14.61
2023-05-14T20:05:49.464Z,14.40
2023-05-14T20:07:54.968Z,14.47
2023-05-14T20:09:57.622Z,14.64
2023-05-14T20:12:00.446Z,14.29
2023-05-14T20:14:03.373Z,14.16
2023-05-14T20:16:07.124Z,14.56
2023-05-14T20:18:10.381Z,14.35
2023-05-14T20:20:14.861Z,14.72
2023-05-14T20:22:17.613Z,14.69
2023-05-14T20:24:20.620Z,14.32
2023-05-14T20:26:23.291Z,14.43
2023-05-14T20:28:26.459Z,14.27
2023-05-14T20:30:29.529Z,14.35
2023-05-14T20:32:32.700Z,14.64
2023-05-14T20:34:35.442Z,14.23
2023-05-14T20:36:38.129Z,13.95
2023-05-14T20:38:41.357Z,14.28
2023-05-14T20:40:45.091Z,14.35
2023-05-14T20:42:47.870Z,14.04
2023-05-14T20:44:51.093Z,14.33
2023-05-14T20:46:53.748Z,14.41
2023-05-14T20:48:57.885Z,14.24
2023-05-14T20:51:02.094Z,14.17
2023-05-14T20:53:05.136Z,14.06
2023-05-14T20:55:08.939Z,14.05
2023-05-14T20:57:12.082Z,13.72
2023-05-14T20:59:14.642Z,14.01
2023-05-14T21:01:17.936Z,13.95
2023-05-14T21:03:21.809Z,14.07
2023-05-14T21:05:24.987Z,14.00
2023-05-14T21:07:28.903Z,14.03
2023-05-14T21:09:31.853Z,13.89
2023-05-14T21:11:34.728Z,13.85
2023-05-14T21:13:37.419Z,13.86
2023-05-14T21:15:40.266Z,13.83
2023-05-14T21:17:42.934Z,13.75
2023-05-14T21:19:45.527Z,13.68
2023-05-14T21:21:48.061Z,14.07
2023-05-14T21:23:50.630Z,14.00
2023-05-14T21:25:55.020Z,13.55
2023-05-14T21:27:58.204Z,13.75
2023-05-14T21:30:00.621Z,13.77
2023-05-14T21:32:03.454Z,13.70
2023-05-14T21:34:06.768Z,13.34
2023-05-14T21:36:10.139Z,13.77
2023-05-14T21:38:13.246Z,13.61
2023-05-14T21:40:16.588Z,13.63
2023-05-14T21:42:21.589Z,13.30
2023-05-14T21:44:24.236Z,13.69
2023-05-14T21:46:27.125Z,13.58
2023-05-14T21:48:29.663Z,13.53
2023-05-14T21:50:31.993Z,13.71
2023-05-14T21:52:34.442Z,13.64
2023-05-14T21:54:36.855Z,13.31
2023-05-14T21:56:40.567Z,13.48
2023-05-14T21:58:43.081Z,13.75
2023-05-14T22:00:46.045Z,13.69
2023-05-14T22:02:48.686Z,13.22
2023-05-14T22:04:51.180Z,13.29
2023-05-14T22:06:53.913Z,13.31
2023-05-14T22:08:56.724Z,13.42
2023-05-14T22:10:59.094Z,13.62
2023-05-14T22:13:01.729Z,13.55
2023-05-14T22:15:05.744Z,13.45
2023-05-14T22:17:08.754Z,13.51
2023-05-14T22:19:12.260Z,13.35
2023-05-14T22:21:15.565Z,13.41
2023-05-14T22:23:18.582Z,13.44
2023-05-14T22:25:21.053Z,13.43
2023-05-14T22:27:23.652Z,13.22
2023-05-14T22:29:26.582Z,13.31
2023-05-14T22:31:30.553Z,13.29
2023-05-14T22:33:33.692Z,13.32
2023-05-14T22:35:36.996Z,13.09
2023-05-14T22:37:40.572Z,13.17
2023-05-14T22:39:44.273Z,13.14
2023-05-14T22:41:46.753Z,13.52
2023-05-14T22:43:50.443Z,13.46
2023-05-14T22:45:53.548Z,13.02
2023-05-14T22:47:56.062Z,13.32
2023-05-14T22:49:58.573Z,13.41
2023-05-14T22:52:02.005Z,13.28
2023-05-14T22:54:05.393Z,13.49
2023-05-14T22:56:08.478Z,13.59
2023-05-14T22:58:11.524Z,13.38
2023-05-14T23:00:15.212Z,13.50
2023-05-14T23:02:18.482Z,13.14
2023-05-14T23:04:21.438Z,12.95
2023-05-14T23:06:25.569Z,13.26
2023-05-14T23:08:28.511Z,13.31
2023-05-14T23:10:31.205Z,13.12
2023-05-14T23:12:34.961Z,13.23
2023-05-14T23:14:38.203Z,13.31
2023-05-14T23:16:40.913Z,13.14
2023-05-14T23:18:44.330Z,13.24
2023-05-14T23:20:46.916Z,13.46
2023-05-14T23:22:49.861Z,13.32
2023-05-14T23:24:53.052Z,13.44
2023-05-14T23:26:56.278Z,12.95
2023-05-14T23:28:58.888Z,13.22
2023-05-14T23:31:01.843Z,12.95
2023-05-14T23:33:04.452Z,13.23
2023-05-14T23:35:07.111Z,13.25
2023-05-14T23:37:09.932Z,13.52
2023-05-14T23:39:12.794Z,13.38
2023-05-14T23:41:15.159Z,12.92
2023-05-14T23:43:18.187Z,13.30
2023-05-14T23:45:21.229Z,13.55
2023-05-14T23:47:23.702Z,13.36
2023-05-14T23:49:26.494Z,13.36
2023-05-14T23:51:29.033Z,12.80
2023-05-14T23:53:32.129Z,13.02
2023-05-14T23:55:34.817Z,13.03
2023-05-14T23:57:37.807Z,13.24
2023-05-14T23:59:40.680Z,13.28
